sensor_id;sensor_type;location;lat;lon;timestamp;pressure;altitude;pressure_sealevel;temperature;humidity
9261;BME280;4667;42.726;23.252;2022-09-09T00:00:27;95432.25;;;18.34;nan
9261;BME280;4667;42.726;23.252;2022-09-09T00:03:06;95429.69;;;18.27;nan
9261;BME280;4667;42.726;23.252;2022-09-09T00:05:41;95421.88;;;18.25;nan
9261;BME280;4667;42.726;23.252;2022-09-09T00:08:15;95415.72;;;18.21;nan
9261;BME280;4667;42.726;23.252;2022-09-09T00:10:49;95421.28;;;18.18;nan
9261;BME280;4667;42.726;23.252;2022-09-09T00:13:22;95423.00;;;18.12;nan
9261;BME280;4667;42.726;23.252;2022-09-09T00:15:57;95417.16;;;18.26;nan
9261;BME280;4667;42.726;23.252;2022-09-09T00:18:27;95414.28;;;18.17;nan
9261;BME280;4667;42.726;23.252;2022-09-09T00:20:59;95405.09;;;18.07;nan
9261;BME280;4667;42.726;23.252;2022-09-09T00:23:30;95392.53;;;18.10;nan
9261;BME280;4667;42.726;23.252;2022-09-09T00:26:07;95395.38;;;17.90;nan
9261;BME280;4667;42.726;23.252;2022-09-09T00:28:39;95387.81;;;17.94;nan
9261;BME280;4667;42.726;23.252;2022-09-09T00:31:13;95382.97;;;17.85;nan
9261;BME280;4667;42.726;23.252;2022-09-09T00:33:41;95379.09;;;17.83;nan
9261;BME280;4667;42.726;23.252;2022-09-09T00:36:13;95369.09;;;17.76;nan
9261;BME280;4667;42.726;23.252;2022-09-09T00:38:44;95376.81;;;17.81;nan
9261;BME280;4667;42.726;23.252;2022-09-09T00:41:20;95381.75;;;17.86;nan
9261;BME280;4667;42.726;23.252;2022-09-09T00:43:56;95383.72;;;17.86;nan
9261;BME280;4667;42.726;23.252;2022-09-09T00:46:49;95396.94;;;17.75;nan
9261;BME280;4667;42.726;23.252;2022-09-09T00:49:25;95399.06;;;17.83;nan
9261;BME280;4667;42.726;23.252;2022-09-09T00:52:08;95398.53;;;17.88;nan
9261;BME280;4667;42.726;23.252;2022-09-09T00:54:45;95390.94;;;17.80;nan
9261;BME280;4667;42.726;23.252;2022-09-09T00:57:23;95391.78;;;17.77;nan
9261;BME280;4667;42.726;23.252;2022-09-09T00:59:57;95384.00;;;17.75;nan
9261;BME280;4667;42.726;23.252;2022-09-09T01:02:30;95394.34;;;17.68;nan
9261;BME280;4667;42.726;23.252;2022-09-09T01:05:07;95395.13;;;17.68;nan
9261;BME280;4667;42.726;23.252;2022-09-09T01:07:39;95398.03;;;17.61;nan
9261;BME280;4667;42.726;23.252;2022-09-09T01:10:11;95402.66;;;17.64;nan
9261;BME280;4667;42.726;23.252;2022-09-09T01:12:47;95403.78;;;17.67;nan
9261;BME280;4667;42.726;23.252;2022-09-09T01:15:17;95406.16;;;17.65;nan
9261;BME280;4667;42.726;23.252;2022-09-09T01:17:54;95394.75;;;17.50;nan
9261;BME280;4667;42.726;23.252;2022-09-09T01:20:26;95397.13;;;17.48;nan
9261;BME280;4667;42.726;23.252;2022-09-09T01:23:09;95390.28;;;17.40;nan
9261;BME280;4667;42.726;23.252;2022-09-09T01:26:13;95393.47;;;17.38;nan
9261;BME280;4667;42.726;23.252;2022-09-09T01:28:44;95399.72;;;17.39;nan
9261;BME280;4667;42.726;23.252;2022-09-09T01:31:15;95407.66;;;17.33;nan
9261;BME280;4667;42.726;23.252;2022-09-09T01:33:43;95406.69;;;17.24;nan
9261;BME280;4667;42.726;23.252;2022-09-09T01:36:13;95406.63;;;17.27;nan
9261;BME280;4667;42.726;23.252;2022-09-09T01:38:41;95412.59;;;17.22;nan
9261;BME280;4667;42.726;23.252;2022-09-09T01:41:09;95414.00;;;17.10;nan
9261;BME280;4667;42.726;23.252;2022-09-09T01:43:37;95415.81;;;17.17;nan
9261;BME280;4667;42.726;23.252;2022-09-09T01:46:04;95426.00;;;17.17;nan
9261;BME280;4667;42.726;23.252;2022-09-09T01:48:31;95418.94;;;17.19;nan
9261;BME280;4667;42.726;23.252;2022-09-09T01:50:57;95422.88;;;16.98;nan
9261;BME280;4667;42.726;23.252;2022-09-09T01:53:24;95419.94;;;16.89;nan
9261;BME280;4667;42.726;23.252;2022-09-09T01:55:58;95431.94;;;17.15;nan
9261;BME280;4667;42.726;23.252;2022-09-09T01:58:34;95420.22;;;16.75;nan
9261;BME280;4667;42.726;23.252;2022-09-09T02:01:08;95406.03;;;17.00;nan
9261;BME280;4667;42.726;23.252;2022-09-09T02:03:44;95411.47;;;17.03;nan
9261;BME280;4667;42.726;23.252;2022-09-09T02:06:25;95411.09;;;17.01;nan
9261;BME280;4667;42.726;23.252;2022-09-09T02:08:55;95406.66;;;17.07;nan
9261;BME280;4667;42.726;23.252;2022-09-09T02:11:24;95403.25;;;17.03;nan
9261;BME280;4667;42.726;23.252;2022-09-09T02:13:56;95395.22;;;17.12;nan
9261;BME280;4667;42.726;23.252;2022-09-09T02:16:27;95397.81;;;17.20;nan
9261;BME280;4667;42.726;23.252;2022-09-09T02:18:58;95395.41;;;17.22;nan
9261;BME280;4667;42.726;23.252;2022-09-09T02:21:28;95387.53;;;17.24;nan
9261;BME280;4667;42.726;23.252;2022-09-09T02:23:59;95405.16;;;17.23;nan
9261;BME280;4667;42.726;23.252;2022-09-09T02:26:30;95403.78;;;17.14;nan
9261;BME280;4667;42.726;23.252;2022-09-09T02:29:03;95406.53;;;17.14;nan
9261;BME280;4667;42.726;23.252;2022-09-09T02:31:34;95411.41;;;17.23;nan
9261;BME280;4667;42.726;23.252;2022-09-09T02:34:03;95410.25;;;17.04;nan
9261;BME280;4667;42.726;23.252;2022-09-09T02:36:33;95410.94;;;17.08;nan
9261;BME280;4667;42.726;23.252;2022-09-09T02:39:02;95423.91;;;17.04;nan
9261;BME280;4667;42.726;23.252;2022-09-09T02:41:32;95421.28;;;17.01;nan
9261;BME280;4667;42.726;23.252;2022-09-09T02:44:02;95426.38;;;16.99;nan
9261;BME280;4667;42.726;23.252;2022-09-09T02:46:53;95421.16;;;16.88;nan
9261;BME280;4667;42.726;23.252;2022-09-09T02:49:29;95419.81;;;16.96;nan
9261;BME280;4667;42.726;23.252;2022-09-09T02:52:02;95414.59;;;17.02;nan
9261;BME280;4667;42.726;23.252;2022-09-09T02:54:33;95423.44;;;17.09;nan
9261;BME280;4667;42.726;23.252;2022-09-09T02:57:05;95423.00;;;17.11;nan
9261;BME280;4667;42.726;23.252;2022-09-09T02:59:35;95423.91;;;17.04;nan
9261;BME280;4667;42.726;23.252;2022-09-09T03:02:02;95419.31;;;17.01;nan
9261;BME280;4667;42.726;23.252;2022-09-09T03:04:29;95423.59;;;17.02;nan
9261;BME280;4667;42.726;23.252;2022-09-09T03:06:56;95418.94;;;16.99;nan
9261;BME280;4667;42.726;23.252;2022-09-09T03:09:23;95424.16;;;16.94;nan
9261;BME280;4667;42.726;23.252;2022-09-09T03:11:51;95416.34;;;16.92;nan
9261;BME280;4667;42.726;23.252;2022-09-09T03:14:17;95417.06;;;16.96;nan
9261;BME280;4667;42.726;23.252;2022-09-09T03:16:48;95416.31;;;16.96;nan
9261;BME280;4667;42.726;23.252;2022-09-09T03:19:14;95417.50;;;16.95;nan
9261;BME280;4667;42.726;23.252;2022-09-09T03:21:41;95421.28;;;16.81;nan
9261;BME280;4667;42.726;23.252;2022-09-09T03:24:08;95419.00;;;16.80;nan
9261;BME280;4667;42.726;23.252;2022-09-09T03:26:35;95417.50;;;16.75;nan
9261;BME280;4667;42.726;23.252;2022-09-09T03:29:03;95417.03;;;16.80;nan
9261;BME280;4667;42.726;23.252;2022-09-09T03:31:31;95418.28;;;16.76;nan
9261;BME280;4667;42.726;23.252;2022-09-09T03:34:00;95407.19;;;16.83;nan
9261;BME280;4667;42.726;23.252;2022-09-09T03:36:27;95414.44;;;16.73;nan
9261;BME280;4667;42.726;23.252;2022-09-09T03:39:01;95404.69;;;16.72;nan
9261;BME280;4667;42.726;23.252;2022-09-09T03:41:29;95415.97;;;16.74;nan
9261;BME280;4667;42.726;23.252;2022-09-09T03:43:56;95411.63;;;16.77;nan
9261;BME280;4667;42.726;23.252;2022-09-09T03:46:25;95425.38;;;16.73;nan
9261;BME280;4667;42.726;23.252;2022-09-09T03:48:52;95426.97;;;16.70;nan
9261;BME280;4667;42.726;23.252;2022-09-09T03:51:21;95427.88;;;16.64;nan
9261;BME280;4667;42.726;23.252;2022-09-09T03:53:48;95435.41;;;16.60;nan
9261;BME280;4667;42.726;23.252;2022-09-09T03:56:14;95422.44;;;16.41;nan
9261;BME280;4667;42.726;23.252;2022-09-09T03:58:41;95418.03;;;16.47;nan
9261;BME280;4667;42.726;23.252;2022-09-09T04:01:10;95423.38;;;16.54;nan
9261;BME280;4667;42.726;23.252;2022-09-09T04:03:38;95427.38;;;16.49;nan
9261;BME280;4667;42.726;23.252;2022-09-09T04:06:07;95424.19;;;16.51;nan
9261;BME280;4667;42.726;23.252;2022-09-09T04:08:36;95426.19;;;16.50;nan
9261;BME280;4667;42.726;23.252;2022-09-09T04:11:04;95422.03;;;16.42;nan
9261;BME280;4667;42.726;23.252;2022-09-09T04:13:31;95422.31;;;16.48;nan
9261;BME280;4667;42.726;23.252;2022-09-09T04:16:01;95419.88;;;16.53;nan
9261;BME280;4667;42.726;23.252;2022-09-09T04:18:28;95426.19;;;16.50;nan
9261;BME280;4667;42.726;23.252;2022-09-09T04:20:56;95431.16;;;16.55;nan
9261;BME280;4667;42.726;23.252;2022-09-09T04:23:24;95419.44;;;16.55;nan
9261;BME280;4667;42.726;23.252;2022-09-09T04:25:53;95426.25;;;16.47;nan
9261;BME280;4667;42.726;23.252;2022-09-09T04:28:23;95423.72;;;16.56;nan
9261;BME280;4667;42.726;23.252;2022-09-09T04:30:50;95434.44;;;16.47;nan
9261;BME280;4667;42.726;23.252;2022-09-09T04:33:18;95428.97;;;16.47;nan
9261;BME280;4667;42.726;23.252;2022-09-09T04:35:45;95434.06;;;16.68;nan
9261;BME280;4667;42.726;23.252;2022-09-09T04:38:13;95428.94;;;16.70;nan
9261;BME280;4667;42.726;23.252;2022-09-09T04:40:42;95429.56;;;16.78;nan
9261;BME280;4667;42.726;23.252;2022-09-09T04:43:10;95430.47;;;16.91;nan
9261;BME280;4667;42.726;23.252;2022-09-09T04:45:36;95423.09;;;16.88;nan
9261;BME280;4667;42.726;23.252;2022-09-09T04:48:05;95425.28;;;16.96;nan
9261;BME280;4667;42.726;23.252;2022-09-09T04:50:32;95421.41;;;16.94;nan
9261;BME280;4667;42.726;23.252;2022-09-09T04:53:00;95414.47;;;17.09;nan
9261;BME280;4667;42.726;23.252;2022-09-09T04:55:27;95412.25;;;17.20;nan
9261;BME280;4667;42.726;23.252;2022-09-09T04:57:54;95413.03;;;17.21;nan
9261;BME280;4667;42.726;23.252;2022-09-09T05:00:24;95421.00;;;17.31;nan
9261;BME280;4667;42.726;23.252;2022-09-09T05:02:52;95421.69;;;17.35;nan
9261;BME280;4667;42.726;23.252;2022-09-09T05:05:19;95406.03;;;17.36;nan
9261;BME280;4667;42.726;23.252;2022-09-09T05:07:45;95403.66;;;17.54;nan
9261;BME280;4667;42.726;23.252;2022-09-09T05:10:13;95408.47;;;17.66;nan
9261;BME280;4667;42.726;23.252;2022-09-09T05:12:40;95413.38;;;17.75;nan
9261;BME280;4667;42.726;23.252;2022-09-09T05:15:08;95414.81;;;17.79;nan
9261;BME280;4667;42.726;23.252;2022-09-09T05:17:36;95415.69;;;17.92;nan
9261;BME280;4667;42.726;23.252;2022-09-09T05:20:04;95411.03;;;17.89;nan
9261;BME280;4667;42.726;23.252;2022-09-09T05:22:31;95399.13;;;17.96;nan
9261;BME280;4667;42.726;23.252;2022-09-09T05:24:58;95398.84;;;18.07;nan
9261;BME280;4667;42.726;23.252;2022-09-09T05:27:26;95406.13;;;18.13;nan
9261;BME280;4667;42.726;23.252;2022-09-09T05:29:53;95405.41;;;18.25;nan
9261;BME280;4667;42.726;23.252;2022-09-09T05:32:20;95405.13;;;18.36;nan
9261;BME280;4667;42.726;23.252;2022-09-09T05:34:48;95406.06;;;18.46;nan
9261;BME280;4667;42.726;23.252;2022-09-09T05:37:15;95403.94;;;18.37;nan
9261;BME280;4667;42.726;23.252;2022-09-09T05:39:43;95414.84;;;18.53;nan
9261;BME280;4667;42.726;23.252;2022-09-09T05:42:10;95412.28;;;18.62;nan
9261;BME280;4667;42.726;23.252;2022-09-09T05:44:37;95409.91;;;18.64;nan
9261;BME280;4667;42.726;23.252;2022-09-09T05:47:04;95413.91;;;18.60;nan
9261;BME280;4667;42.726;23.252;2022-09-09T05:49:31;95413.66;;;18.70;nan
9261;BME280;4667;42.726;23.252;2022-09-09T05:51:59;95404.09;;;18.75;nan
9261;BME280;4667;42.726;23.252;2022-09-09T05:54:25;95410.47;;;18.85;nan
9261;BME280;4667;42.726;23.252;2022-09-09T05:56:52;95411.81;;;18.93;nan
9261;BME280;4667;42.726;23.252;2022-09-09T05:59:19;95411.28;;;18.98;nan
9261;BME280;4667;42.726;23.252;2022-09-09T06:01:48;95414.47;;;18.96;nan
9261;BME280;4667;42.726;23.252;2022-09-09T06:04:15;95417.00;;;19.03;nan
9261;BME280;4667;42.726;23.252;2022-09-09T06:06:42;95419.53;;;18.98;nan
9261;BME280;4667;42.726;23.252;2022-09-09T06:09:10;95407.16;;;18.77;nan
9261;BME280;4667;42.726;23.252;2022-09-09T06:11:38;95407.53;;;18.92;nan
9261;BME280;4667;42.726;23.252;2022-09-09T06:14:05;95423.28;;;19.16;nan
9261;BME280;4667;42.726;23.252;2022-09-09T06:16:33;95415.94;;;19.26;nan
9261;BME280;4667;42.726;23.252;2022-09-09T06:19:00;95427.81;;;19.23;nan
9261;BME280;4667;42.726;23.252;2022-09-09T06:21:29;95417.81;;;19.29;nan
9261;BME280;4667;42.726;23.252;2022-09-09T06:23:56;95417.06;;;19.41;nan
9261;BME280;4667;42.726;23.252;2022-09-09T06:26:26;95418.50;;;19.59;nan
9261;BME280;4667;42.726;23.252;2022-09-09T06:28:54;95421.34;;;19.68;nan
9261;BME280;4667;42.726;23.252;2022-09-09T06:31:24;95413.88;;;19.81;nan
9261;BME280;4667;42.726;23.252;2022-09-09T06:33:52;95412.16;;;19.96;nan
9261;BME280;4667;42.726;23.252;2022-09-09T06:36:22;95405.44;;;20.10;nan
9261;BME280;4667;42.726;23.252;2022-09-09T06:38:49;95406.13;;;20.14;nan
9261;BME280;4667;42.726;23.252;2022-09-09T06:41:17;95396.28;;;20.25;nan
9261;BME280;4667;42.726;23.252;2022-09-09T06:43:46;95387.53;;;20.40;nan
9261;BME280;4667;42.726;23.252;2022-09-09T06:46:14;95389.91;;;20.50;nan
9261;BME280;4667;42.726;23.252;2022-09-09T06:48:42;95403.50;;;20.66;nan
9261;BME280;4667;42.726;23.252;2022-09-09T06:51:11;95408.00;;;20.73;nan
9261;BME280;4667;42.726;23.252;2022-09-09T06:53:40;95401.91;;;20.78;nan
9261;BME280;4667;42.726;23.252;2022-09-09T06:56:18;95419.69;;;20.86;nan
9261;BME280;4667;42.726;23.252;2022-09-09T06:58:47;95415.09;;;20.83;nan
9261;BME280;4667;42.726;23.252;2022-09-09T07:01:16;95411.94;;;20.94;nan
9261;BME280;4667;42.726;23.252;2022-09-09T07:03:46;95412.38;;;21.14;nan
9261;BME280;4667;42.726;23.252;2022-09-09T07:06:15;95404.63;;;21.22;nan
9261;BME280;4667;42.726;23.252;2022-09-09T07:08:43;95405.97;;;21.39;nan
9261;BME280;4667;42.726;23.252;2022-09-09T07:11:10;95403.91;;;21.61;nan
9261;BME280;4667;42.726;23.252;2022-09-09T07:13:37;95405.03;;;21.82;nan
9261;BME280;4667;42.726;23.252;2022-09-09T07:16:07;95407.38;;;21.92;nan
9261;BME280;4667;42.726;23.252;2022-09-09T07:18:34;95399.38;;;21.94;nan
9261;BME280;4667;42.726;23.252;2022-09-09T07:21:01;95391.50;;;22.15;nan
9261;BME280;4667;42.726;23.252;2022-09-09T07:23:29;95406.03;;;21.97;nan
9261;BME280;4667;42.726;23.252;2022-09-09T07:25:57;95393.03;;;22.16;nan
9261;BME280;4667;42.726;23.252;2022-09-09T07:28:24;95395.81;;;22.34;nan
9261;BME280;4667;42.726;23.252;2022-09-09T07:30:55;95383.09;;;22.64;nan
9261;BME280;4667;42.726;23.252;2022-09-09T07:33:24;95386.31;;;22.81;nan
9261;BME280;4667;42.726;23.252;2022-09-09T07:35:52;95384.06;;;23.12;nan
9261;BME280;4667;42.726;23.252;2022-09-09T07:38:20;95388.81;;;23.20;nan
9261;BME280;4667;42.726;23.252;2022-09-09T07:40:48;95387.88;;;23.33;nan
9261;BME280;4667;42.726;23.252;2022-09-09T07:43:14;95396.06;;;23.69;nan
9261;BME280;4667;42.726;23.252;2022-09-09T07:45:42;95398.72;;;23.87;nan
9261;BME280;4667;42.726;23.252;2022-09-09T07:48:09;95397.44;;;23.97;nan
9261;BME280;4667;42.726;23.252;2022-09-09T07:50:37;95391.88;;;24.30;nan
9261;BME280;4667;42.726;23.252;2022-09-09T07:53:04;95393.97;;;24.59;nan
9261;BME280;4667;42.726;23.252;2022-09-09T07:55:31;95389.25;;;24.89;nan
9261;BME280;4667;42.726;23.252;2022-09-09T07:57:58;95386.09;;;25.11;nan
9261;BME280;4667;42.726;23.252;2022-09-09T08:00:25;95373.50;;;25.25;nan
9261;BME280;4667;42.726;23.252;2022-09-09T08:02:53;95384.94;;;25.47;nan
9261;BME280;4667;42.726;23.252;2022-09-09T08:05:20;95387.16;;;25.57;nan
9261;BME280;4667;42.726;23.252;2022-09-09T08:07:49;95395.06;;;25.79;nan
9261;BME280;4667;42.726;23.252;2022-09-09T08:10:15;95385.38;;;25.75;nan
9261;BME280;4667;42.726;23.252;2022-09-09T08:12:43;95386.13;;;26.10;nan
9261;BME280;4667;42.726;23.252;2022-09-09T08:15:10;95383.34;;;26.45;nan
9261;BME280;4667;42.726;23.252;2022-09-09T08:17:37;95391.03;;;26.56;nan
9261;BME280;4667;42.726;23.252;2022-09-09T08:20:05;95384.56;;;26.64;nan
9261;BME280;4667;42.726;23.252;2022-09-09T08:22:32;95378.28;;;26.90;nan
9261;BME280;4667;42.726;23.252;2022-09-09T08:25:01;95385.53;;;27.33;nan
9261;BME280;4667;42.726;23.252;2022-09-09T08:27:31;95372.59;;;27.30;nan
9261;BME280;4667;42.726;23.252;2022-09-09T08:29:58;95380.88;;;26.73;nan
9261;BME280;4667;42.726;23.252;2022-09-09T08:32:25;95365.81;;;26.59;nan
9261;BME280;4667;42.726;23.252;2022-09-09T08:34:52;95369.78;;;26.53;nan
9261;BME280;4667;42.726;23.252;2022-09-09T08:37:19;95369.81;;;26.78;nan
9261;BME280;4667;42.726;23.252;2022-09-09T08:39:46;95375.72;;;26.86;nan
9261;BME280;4667;42.726;23.252;2022-09-09T08:42:35;95369.59;;;27.34;nan
9261;BME280;4667;42.726;23.252;2022-09-09T08:45:14;95366.78;;;27.59;nan
9261;BME280;4667;42.726;23.252;2022-09-09T08:47:54;95361.06;;;27.43;nan
9261;BME280;4667;42.726;23.252;2022-09-09T08:50:26;95364.88;;;28.14;nan
9261;BME280;4667;42.726;23.252;2022-09-09T08:52:59;95363.56;;;28.68;nan
9261;BME280;4667;42.726;23.252;2022-09-09T08:55:35;95365.22;;;29.19;nan
9261;BME280;4667;42.726;23.252;2022-09-09T08:58:11;95358.13;;;29.52;nan
9261;BME280;4667;42.726;23.252;2022-09-09T09:00:47;95357.88;;;29.72;nan
9261;BME280;4667;42.726;23.252;2022-09-09T09:03:23;95360.09;;;30.13;nan
9261;BME280;4667;42.726;23.252;2022-09-09T09:06:01;95358.25;;;30.37;nan
9261;BME280;4667;42.726;23.252;2022-09-09T09:08:36;95359.66;;;30.66;nan
9261;BME280;4667;42.726;23.252;2022-09-09T09:11:06;95361.31;;;30.92;nan
9261;BME280;4667;42.726;23.252;2022-09-09T09:13:45;95358.59;;;31.21;nan
9261;BME280;4667;42.726;23.252;2022-09-09T09:16:23;95352.78;;;31.49;nan
9261;BME280;4667;42.726;23.252;2022-09-09T09:18:52;95354.34;;;31.45;nan
9261;BME280;4667;42.726;23.252;2022-09-09T09:21:26;95350.50;;;31.78;nan
9261;BME280;4667;42.726;23.252;2022-09-09T09:23:57;95344.91;;;32.02;nan
9261;BME280;4667;42.726;23.252;2022-09-09T09:26:30;95344.81;;;32.13;nan
9261;BME280;4667;42.726;23.252;2022-09-09T09:29:00;95352.47;;;32.13;nan
9261;BME280;4667;42.726;23.252;2022-09-09T09:31:34;95354.78;;;32.09;nan
9261;BME280;4667;42.726;23.252;2022-09-09T09:34:01;95350.84;;;31.69;nan
9261;BME280;4667;42.726;23.252;2022-09-09T09:36:34;95336.13;;;31.33;nan
9261;BME280;4667;42.726;23.252;2022-09-09T09:39:02;95336.31;;;31.05;nan
9261;BME280;4667;42.726;23.252;2022-09-09T09:41:32;95339.09;;;31.05;nan
9261;BME280;4667;42.726;23.252;2022-09-09T09:44:02;95331.09;;;30.32;nan
9261;BME280;4667;42.726;23.252;2022-09-09T09:46:30;95332.69;;;30.00;nan
9261;BME280;4667;42.726;23.252;2022-09-09T09:48:58;95332.16;;;30.13;nan
9261;BME280;4667;42.726;23.252;2022-09-09T09:51:26;95332.44;;;30.03;nan
9261;BME280;4667;42.726;23.252;2022-09-09T09:54:05;95329.44;;;29.68;nan
9261;BME280;4667;42.726;23.252;2022-09-09T09:56:35;95322.59;;;29.30;nan
9261;BME280;4667;42.726;23.252;2022-09-09T09:59:04;95314.25;;;29.36;nan
9261;BME280;4667;42.726;23.252;2022-09-09T10:01:32;95321.59;;;29.33;nan
9261;BME280;4667;42.726;23.252;2022-09-09T10:04:01;95323.88;;;29.12;nan
9261;BME280;4667;42.726;23.252;2022-09-09T10:06:29;95334.47;;;28.86;nan
9261;BME280;4667;42.726;23.252;2022-09-09T10:08:56;95339.47;;;28.60;nan
9261;BME280;4667;42.726;23.252;2022-09-09T10:11:33;95342.47;;;28.45;nan
9261;BME280;4667;42.726;23.252;2022-09-09T10:14:14;95340.41;;;28.34;nan
9261;BME280;4667;42.726;23.252;2022-09-09T10:16:55;95348.97;;;28.25;nan
9261;BME280;4667;42.726;23.252;2022-09-09T10:19:30;95345.31;;;28.08;nan
9261;BME280;4667;42.726;23.252;2022-09-09T10:22:04;95348.94;;;27.77;nan
9261;BME280;4667;42.726;23.252;2022-09-09T10:24:48;95351.41;;;27.64;nan
9261;BME280;4667;42.726;23.252;2022-09-09T10:27:23;95344.75;;;27.56;nan
9261;BME280;4667;42.726;23.252;2022-09-09T10:30:03;95351.38;;;27.58;nan
9261;BME280;4667;42.726;23.252;2022-09-09T10:32:44;95347.00;;;27.52;nan
9261;BME280;4667;42.726;23.252;2022-09-09T10:35:19;95345.22;;;27.23;nan
9261;BME280;4667;42.726;23.252;2022-09-09T10:38:02;95350.03;;;27.23;nan
9261;BME280;4667;42.726;23.252;2022-09-09T10:40:33;95348.03;;;27.54;nan
9261;BME280;4667;42.726;23.252;2022-09-09T10:43:11;95362.75;;;27.60;nan
9261;BME280;4667;42.726;23.252;2022-09-09T10:45:49;95349.03;;;27.51;nan
9261;BME280;4667;42.726;23.252;2022-09-09T10:48:31;95355.06;;;27.50;nan
9261;BME280;4667;42.726;23.252;2022-09-09T10:51:16;95369.56;;;27.59;nan
9261;BME280;4667;42.726;23.252;2022-09-09T10:53:55;95350.47;;;27.15;nan
9261;BME280;4667;42.726;23.252;2022-09-09T10:56:28;95353.84;;;27.51;nan
9261;BME280;4667;42.726;23.252;2022-09-09T10:58:58;95354.50;;;27.77;nan
9261;BME280;4667;42.726;23.252;2022-09-09T11:01:32;95349.03;;;27.51;nan
9261;BME280;4667;42.726;23.252;2022-09-09T11:04:02;95345.00;;;27.52;nan
9261;BME280;4667;42.726;23.252;2022-09-09T11:06:36;95350.69;;;27.75;nan
9261;BME280;4667;42.726;23.252;2022-09-09T11:09:10;95351.16;;;27.68;nan
9261;BME280;4667;42.726;23.252;2022-09-09T11:11:46;95342.72;;;27.56;nan
9261;BME280;4667;42.726;23.252;2022-09-09T11:14:21;95338.56;;;27.78;nan
9261;BME280;4667;42.726;23.252;2022-09-09T11:16:53;95334.66;;;27.58;nan
9261;BME280;4667;42.726;23.252;2022-09-09T11:19:26;95332.00;;;27.81;nan
9261;BME280;4667;42.726;23.252;2022-09-09T11:21:55;95330.25;;;27.89;nan
9261;BME280;4667;42.726;23.252;2022-09-09T11:24:26;95327.97;;;28.24;nan
9261;BME280;4667;42.726;23.252;2022-09-09T11:26:57;95331.56;;;28.41;nan
9261;BME280;4667;42.726;23.252;2022-09-09T11:29:47;95319.22;;;28.00;nan
9261;BME280;4667;42.726;23.252;2022-09-09T11:32:34;95306.50;;;28.47;nan
9261;BME280;4667;42.726;23.252;2022-09-09T11:35:18;95303.25;;;28.65;nan
9261;BME280;4667;42.726;23.252;2022-09-09T11:38:15;95285.06;;;29.03;nan
9261;BME280;4667;42.726;23.252;2022-09-09T11:40:43;95279.25;;;29.07;nan
9261;BME280;4667;42.726;23.252;2022-09-09T11:43:13;95265.28;;;29.07;nan
9261;BME280;4667;42.726;23.252;2022-09-09T11:45:42;95260.44;;;29.30;nan
9261;BME280;4667;42.726;23.252;2022-09-09T11:48:26;95257.94;;;29.43;nan
9261;BME280;4667;42.726;23.252;2022-09-09T11:50:58;95256.09;;;29.56;nan
9261;BME280;4667;42.726;23.252;2022-09-09T11:53:26;95258.31;;;29.80;nan
9261;BME280;4667;42.726;23.252;2022-09-09T11:56:08;95265.56;;;30.17;nan
9261;BME280;4667;42.726;23.252;2022-09-09T11:58:42;95259.38;;;30.81;nan
9261;BME280;4667;42.726;23.252;2022-09-09T12:04:05;95259.81;;;32.24;nan
9261;BME280;4667;42.726;23.252;2022-09-09T12:09:16;95243.59;;;33.24;nan
9261;BME280;4667;42.726;23.252;2022-09-09T12:14:20;95247.91;;;32.93;nan
9261;BME280;4667;42.726;23.252;2022-09-09T12:21:49;95234.91;;;31.96;nan
9261;BME280;4667;42.726;23.252;2022-09-09T12:24:23;95232.53;;;31.57;nan
9261;BME280;4667;42.726;23.252;2022-09-09T12:26:56;95238.91;;;31.82;nan
9261;BME280;4667;42.726;23.252;2022-09-09T12:29:31;95227.03;;;31.94;nan
9261;BME280;4667;42.726;23.252;2022-09-09T12:32:06;95222.00;;;32.12;nan
9261;BME280;4667;42.726;23.252;2022-09-09T12:37:11;95219.00;;;31.85;nan
9261;BME280;4667;42.726;23.252;2022-09-09T12:39:44;95214.88;;;31.68;nan
9261;BME280;4667;42.726;23.252;2022-09-09T12:42:20;95210.28;;;30.86;nan
9261;BME280;4667;42.726;23.252;2022-09-09T12:44:51;95202.97;;;30.77;nan
9261;BME280;4667;42.726;23.252;2022-09-09T12:47:20;95205.63;;;31.24;nan
9261;BME280;4667;42.726;23.252;2022-09-09T12:49:49;95206.13;;;31.28;nan
9261;BME280;4667;42.726;23.252;2022-09-09T12:52:22;95209.72;;;31.47;nan
9261;BME280;4667;42.726;23.252;2022-09-09T13:04:49;95195.06;;;29.94;nan
9261;BME280;4667;42.726;23.252;2022-09-09T13:07:17;95200.00;;;29.60;nan
9261;BME280;4667;42.726;23.252;2022-09-09T13:09:46;95200.88;;;30.01;nan
9261;BME280;4667;42.726;23.252;2022-09-09T13:22:16;95183.19;;;30.29;nan
9261;BME280;4667;42.726;23.252;2022-09-09T13:27:26;95177.09;;;29.78;nan
9261;BME280;4667;42.726;23.252;2022-09-09T13:32:23;95179.81;;;29.09;nan
9261;BME280;4667;42.726;23.252;2022-09-09T13:34:51;95171.97;;;28.80;nan
9261;BME280;4667;42.726;23.252;2022-09-09T13:37:23;95176.50;;;28.44;nan
9261;BME280;4667;42.726;23.252;2022-09-09T13:39:53;95163.59;;;28.24;nan
9261;BME280;4667;42.726;23.252;2022-09-09T13:42:25;95164.44;;;27.77;nan
9261;BME280;4667;42.726;23.252;2022-09-09T13:44:53;95157.84;;;27.69;nan
9261;BME280;4667;42.726;23.252;2022-09-09T13:47:28;95145.25;;;28.07;nan
9261;BME280;4667;42.726;23.252;2022-09-09T13:49:56;95154.47;;;28.35;nan
9261;BME280;4667;42.726;23.252;2022-09-09T13:52:31;95145.84;;;28.22;nan
9261;BME280;4667;42.726;23.252;2022-09-09T13:54:57;95138.50;;;28.80;nan
9261;BME280;4667;42.726;23.252;2022-09-09T13:57:25;95142.25;;;29.21;nan
9261;BME280;4667;42.726;23.252;2022-09-09T13:59:54;95146.03;;;29.30;nan
9261;BME280;4667;42.726;23.252;2022-09-09T14:02:21;95143.50;;;29.20;nan
9261;BME280;4667;42.726;23.252;2022-09-09T14:04:48;95144.34;;;28.93;nan
9261;BME280;4667;42.726;23.252;2022-09-09T14:07:17;95145.63;;;28.59;nan
9261;BME280;4667;42.726;23.252;2022-09-09T14:09:45;95135.72;;;28.69;nan
9261;BME280;4667;42.726;23.252;2022-09-09T14:12:15;95136.19;;;29.06;nan
9261;BME280;4667;42.726;23.252;2022-09-09T14:14:43;95141.25;;;29.02;nan
9261;BME280;4667;42.726;23.252;2022-09-09T14:17:10;95134.44;;;28.70;nan
9261;BME280;4667;42.726;23.252;2022-09-09T14:19:37;95130.81;;;29.31;nan
9261;BME280;4667;42.726;23.252;2022-09-09T14:22:04;95127.47;;;29.49;nan
9261;BME280;4667;42.726;23.252;2022-09-09T14:24:30;95128.78;;;29.20;nan
9261;BME280;4667;42.726;23.252;2022-09-09T14:26:58;95127.28;;;29.19;nan
9261;BME280;4667;42.726;23.252;2022-09-09T14:29:25;95119.19;;;29.10;nan
9261;BME280;4667;42.726;23.252;2022-09-09T14:31:52;95126.19;;;29.44;nan